createdAt,value
2023-03-05T00:06:25.443Z,16.9
2023-03-05T00:16:25.926Z,17.2
2023-03-05T00:26:26.442Z,16.9
2023-03-05T00:36:26.593Z,17.3
2023-03-05T00:46:26.831Z,17.3
2023-03-05T00:56:27.539Z,17.2
2023-03-05T01:06:27.905Z,17.3
2023-03-05T01:16:27.984Z,17.1
2023-03-05T01:26:28.400Z,17.3
2023-03-05T01:36:27.714Z,17.2
2023-03-05T01:46:28.907Z,17.3
2023-03-05T01:56:29.045Z,17.3
2023-03-05T02:06:29.191Z,17.4
2023-03-05T02:16:30.068Z,17.2
2023-03-05T02:26:30.445Z,17.3
2023-03-05T02:36:30.551Z,17.3
2023-03-05T02:46:30.770Z,17.3
2023-03-05T02:56:30.892Z,17.2
2023-03-05T03:06:07.643Z,17.2
2023-03-05T03:16:07.178Z,17.3
2023-03-05T03:26:06.951Z,17.2
2023-03-05T03:36:07.777Z,17.1
2023-03-05T03:46:08.266Z,17.3
2023-03-05T03:56:08.106Z,17.1
2023-03-05T04:06:09.802Z,16.9
2023-03-05T04:16:12.092Z,17.3
2023-03-05T04:26:13.888Z,17.3
2023-03-05T04:36:16.439Z,17.3
2023-03-05T04:46:17.526Z,17.3
2023-03-05T04:56:19.465Z,17.3
2023-03-05T05:06:20.329Z,16.9
2023-03-05T05:16:20.851Z,17.3
2023-03-05T05:26:20.960Z,17.3
2023-03-05T05:36:20.773Z,17.2
2023-03-05T05:46:22.141Z,17.1
2023-03-05T05:56:24.597Z,17.1
2023-03-05T06:06:26.354Z,17.2
2023-03-05T06:16:36.911Z,17.2
2023-03-05T06:26:41.685Z,17.4
2023-03-05T06:36:45.302Z,16.9
2023-03-05T06:46:53.660Z,16.7
2023-03-05T06:57:05.875Z,16.6
2023-03-05T07:07:20.488Z,15
2023-03-05T07:17:35.263Z,16.7
2023-03-05T07:27:50.578Z,16.5
2023-03-05T07:38:06.227Z,15.4
2023-03-05T07:48:24.281Z,16.6
2023-03-05T07:58:41.308Z,17.1
2023-03-05T08:08:57.742Z,16.6
2023-03-05T08:19:12.794Z,17.1
2023-03-05T08:29:26.572Z,16.9
2023-03-05T08:39:43.645Z,17.1
2023-03-05T08:49:57.545Z,16.9
2023-03-05T09:06:16.751Z,16.9
2023-03-05T09:16:34.898Z,15.7
2023-03-05T09:26:50.271Z,16.1
2023-03-05T09:37:07.248Z,15.8
2023-03-05T09:47:25.115Z,15.3
2023-03-05T09:57:39.687Z,16.8
2023-03-05T10:07:52.611Z,17.1
2023-03-05T10:18:05.695Z,16.9
2023-03-05T10:28:17.075Z,16.9
2023-03-05T10:38:29.955Z,17.1
2023-03-05T10:48:40.322Z,17.1
2023-03-05T10:58:51.420Z,16.8
2023-03-05T11:08:58.130Z,17.1
2023-03-05T11:19:04.639Z,17.2
2023-03-05T11:29:09.527Z,17.3
2023-03-05T11:39:14.829Z,17.6
2023-03-05T11:49:20.726Z,17.1
2023-03-05T11:59:29.239Z,17.2
2023-03-05T12:09:36.225Z,17.3
2023-03-05T12:19:44.104Z,17.4
2023-03-05T12:29:50.597Z,17.4
2023-03-05T12:40:01.653Z,16.9
2023-03-05T12:50:09.829Z,17.6
2023-03-05T13:00:16.912Z,17.3
2023-03-05T13:10:21.925Z,17.5
2023-03-05T13:20:24.660Z,17.5
2023-03-05T13:30:25.512Z,17.3
2023-03-05T13:40:26.307Z,17.3
2023-03-05T13:50:27.562Z,16.9
2023-03-05T14:00:28.311Z,17.4
2023-03-05T14:10:28.869Z,17.4
2023-03-05T14:20:30.534Z,17.1
2023-03-05T14:30:31.104Z,17.4
2023-03-05T14:40:31.523Z,17.4
2023-03-05T14:50:32.891Z,17.1
2023-03-05T15:06:09.689Z,17.4
2023-03-05T15:16:09.232Z,17.4
2023-03-05T15:26:09.477Z,17.5
2023-03-05T15:36:10.259Z,17.3
2023-03-05T15:46:11.995Z,17.1
2023-03-05T15:56:12.387Z,17.4
2023-03-05T16:06:14.195Z,17.2
2023-03-05T16:16:15.988Z,17.4
2023-03-05T16:26:17.627Z,17.4
2023-03-05T16:36:19.439Z,17.3
2023-03-05T16:46:21.858Z,17.4
2023-03-05T16:56:23.308Z,17.2
2023-03-05T17:06:23.643Z,17.4
2023-03-05T17:16:25.004Z,17.4
2023-03-05T17:26:25.196Z,17.2
2023-03-05T17:36:24.981Z,17.3
2023-03-05T17:46:25.543Z,17.3
2023-03-05T17:56:26.805Z,17.4
2023-03-05T18:06:26.318Z,17.3
2023-03-05T18:16:27.506Z,17.4
2023-03-05T18:26:28.255Z,17.4
2023-03-05T18:36:27.963Z,17.4
2023-03-05T18:46:27.838Z,17.4
2023-03-05T18:56:28.104Z,17.3
2023-03-05T19:06:27.928Z,17.4
2023-03-05T19:16:29.542Z,17.3
2023-03-05T19:26:29.687Z,17.3
2023-03-05T19:36:29.492Z,17.4
2023-03-05T19:46:30.631Z,17.3
2023-03-05T19:56:31.177Z,17.4
2023-03-05T20:06:31.460Z,17.3
2023-03-05T20:16:32.004Z,17.4
2023-03-05T20:26:32.227Z,17.4
2023-03-05T20:36:32.093Z,17.4
2023-03-05T20:46:32.634Z,17.4
2023-03-05T20:56:32.806Z,17.3
2023-03-05T21:06:08.329Z,17.3
2023-03-05T21:16:08.018Z,17.3
2023-03-05T21:26:08.501Z,17.2
2023-03-05T21:36:08.970Z,17.4
2023-03-05T21:46:08.682Z,17.3
2023-03-05T21:56:09.431Z,17.3
2023-03-05T22:06:10.804Z,17.3
2023-03-05T22:16:12.066Z,17.3
2023-03-05T22:26:15.108Z,16.9
2023-03-05T22:36:16.299Z,17.4
2023-03-05T22:46:18.489Z,17.3
2023-03-05T22:56:20.008Z,17.4
2023-03-05T23:06:20.178Z,17.4
2023-03-05T23:16:21.075Z,17.4
2023-03-05T23:26:21.580Z,17.3
2023-03-05T23:36:22.001Z,17.4
2023-03-05T23:46:22.035Z,17.4
2023-03-05T23:56:22.443Z,17.3
